Annemanie, Alabama
Current Conditions -  °F | °C
As of 10:15 PM on Sunday 25 Jan 2015 (Local Time) from KDYA Reporting Station
Scattered Clouds Scattered Clouds  
Wind Chill: 51°   Ceiling: Unl
Heat Index: 51°   Visibility: 10mi
Dew Point: 39°   Wind: 7mph
Humidity: 63%   Direction: 300°WNW
Pressure: 29.88"   Gusts: NA
Location:  32.05°N, 87.57°W
Report Text: KDYA 260415Z AUTO 30006KT 10SM SCT050 11/04 A2988 RMK AO2 T01080040
Loading
Personal Weather Stations






























Interactive Weather Map New forecast layout! Learn more

10-Day Weather Forecast

Advertisements
Track Severe Weather on mobile